Time;durP1;ratioP1;P1;durP2;ratioP2;P2;SDS_P1;SDS_P2;PMS_P1;PMS_P2;Temp;Humidity;BMP_temperature;BMP_pressure;BME280_temperature;BME280_humidity;BME280_pressure;Samples;Min_cycle;Max_cycle;Signal;HPM_P1;HPM_P2
2023/05/13 00:02:01;;;;;;;7.07;4.70;;;12.10;99.90;;;;;;5082528;28;20186;-39
2023/05/13 00:04:29;;;;;;;4.87;4.47;;;12.10;99.90;;;;;;5070625;28;20218;-40
2023/05/13 00:06:56;;;;;;;8.20;4.90;;;12.10;99.90;;;;;;5075690;28;20205;-44
2023/05/13 00:09:23;;;;;;;6.03;4.30;;;12.10;99.90;;;;;;5065037;28;20229;-41
2023/05/13 00:11:51;;;;;;;5.23;4.70;;;12.00;99.90;;;;;;5080178;28;20287;-42
2023/05/13 00:14:18;;;;;;;5.53;4.67;;;12.00;99.90;;;;;;5066423;28;20206;-40
2023/05/13 00:16:46;;;;;;;7.20;5.23;;;12.00;99.90;;;;;;5082935;28;20252;-43
2023/05/13 00:19:13;;;;;;;4.97;4.37;;;11.90;99.90;;;;;;5084361;28;20233;-42
2023/05/13 00:21:40;;;;;;;5.77;4.97;;;11.90;99.90;;;;;;5065896;28;20244;-40
2023/05/13 00:24:07;;;;;;;5.33;4.83;;;11.90;99.90;;;;;;5075016;28;20218;-43
2023/05/13 00:26:34;;;;;;;7.23;4.87;;;11.80;99.90;;;;;;5082276;28;20231;-41
2023/05/13 00:29:03;;;;;;;6.93;5.33;;;11.70;99.90;;;;;;5061981;28;20287;-46
2023/05/13 00:31:29;;;;;;;7.47;5.10;;;11.10;99.90;;;;;;5081381;28;20217;-41
2023/05/13 00:33:57;;;;;;;4.80;4.30;;;11.70;99.90;;;;;;5080136;28;20251;-40
2023/05/13 00:36:26;;;;;;;4.90;4.50;;;11.70;99.90;;;;;;5067260;28;20209;-41
2023/05/13 00:38:52;;;;;;;7.17;4.57;;;11.70;99.90;;;;;;5077171;28;20398;-46
2023/05/13 00:41:20;;;;;;;6.20;4.90;;;11.70;99.90;;;;;;5084092;28;20194;-45
2023/05/13 00:43:47;;;;;;;5.80;5.07;;;11.60;99.90;;;;;;5081268;28;20186;-45
2023/05/13 00:46:16;;;;;;;5.27;4.87;;;11.60;99.90;;;;;;5064907;28;20715;-41
2023/05/13 00:48:43;;;;;;;4.90;4.50;;;11.60;99.90;;;;;;5074526;28;20283;-42
2023/05/13 00:51:10;;;;;;;4.93;4.33;;;11.60;99.90;;;;;;5078938;28;20213;-40
2023/05/13 00:53:39;;;;;;;5.77;5.07;;;11.50;99.90;;;;;;5062292;28;20202;-42
2023/05/13 00:56:07;;;;;;;7.00;4.30;;;11.50;99.90;;;;;;5085101;28;20572;-41
2023/05/13 00:58:34;;;;;;;7.80;5.00;;;11.40;99.90;;;;;;5080024;28;20194;-42
2023/05/13 01:01:11;;;;;;;6.07;5.03;;;11.40;99.90;;;;;;5058026;28;20286;-41
2023/05/13 01:03:50;;;;;;;6.40;5.07;;;11.40;99.90;;;;;;5073054;28;20192;-41
2023/05/13 01:06:21;;;;;;;6.67;4.83;;;11.40;99.90;;;;;;5083527;28;20362;-44
2023/05/13 01:08:57;;;;;;;6.23;5.23;;;11.30;99.90;;;;;;5059774;28;21106;-42
2023/05/13 01:11:27;;;;;;;5.70;5.10;;;11.30;99.90;;;;;;5082900;28;20208;-40
2023/05/13 01:14:01;;;;;;;7.53;5.47;;;11.30;99.90;;;;;;5082576;28;20255;-42
2023/05/13 01:16:34;;;;;;;6.20;5.37;;;11.30;99.90;;;;;;5056565;28;20221;-42
2023/05/13 01:19:08;;;;;;;7.40;5.07;;;11.20;99.90;;;;;;5079207;28;20218;-39
2023/05/13 01:21:39;;;;;;;6.93;5.30;;;11.20;99.90;;;;;;5081828;28;20197;-41
2023/05/13 01:24:07;;;;;;;7.37;5.10;;;11.20;99.90;;;;;;5064958;28;20206;-41
2023/05/13 01:26:35;;;;;;;6.63;5.30;;;11.20;99.90;;;;;;5074867;28;20208;-40
2023/05/13 01:29:02;;;;;;;5.80;5.20;;;11.20;99.90;;;;;;5081375;28;20209;-44
2023/05/13 01:31:30;;;;;;;6.57;5.40;;;11.20;99.90;;;;;;5054918;28;20221;-40
2023/05/13 01:33:57;;;;;;;10.53;5.30;;;11.10;99.90;;;;;;5081015;28;20648;-39
2023/05/13 01:36:24;;;;;;;6.63;5.10;;;11.10;99.90;;;;;;5078942;28;20239;-43
2023/05/13 01:38:54;;;;;;;8.30;5.90;;;11.10;99.90;;;;;;5075023;28;20213;-39
2023/05/13 01:41:21;;;;;;;6.77;5.87;;;11.00;99.90;;;;;;5075176;28;20210;-41
2023/05/13 01:43:48;;;;;;;7.23;5.90;;;11.00;99.90;;;;;;5076337;28;20178;-41
2023/05/13 01:46:15;;;;;;;6.43;5.30;;;11.00;99.90;;;;;;5078085;28;20949;-39
2023/05/13 01:48:42;;;;;;;8.43;5.60;;;11.00;99.90;;;;;;5060865;28;20208;-40
2023/05/13 01:51:09;;;;;;;9.60;5.63;;;10.90;99.90;;;;;;5084487;28;20240;-46
2023/05/13 01:53:36;;;;;;;10.47;5.57;;;10.90;99.90;;;;;;5068603;28;20697;-46
2023/05/13 01:56:09;;;;;;;6.73;5.97;;;10.90;99.90;;;;;;5067002;28;20208;-46
2023/05/13 01:58:36;;;;;;;7.00;5.40;;;10.90;99.90;;;;;;5070862;28;20196;-43
2023/05/13 02:01:03;;;;;;;8.23;5.67;;;10.80;99.90;;;;;;5079831;28;20182;-42
2023/05/13 02:03:30;;;;;;;8.17;6.20;;;10.80;99.90;;;;;;5061177;28;20303;-44
2023/05/13 02:05:57;;;;;;;8.30;5.57;;;10.70;99.90;;;;;;5081857;28;20961;-43
2023/05/13 02:08:24;;;;;;;6.43;5.83;;;10.80;99.90;;;;;;5082120;28;20737;-44
2023/05/13 02:10:55;;;;;;;8.17;5.77;;;10.70;99.90;;;;;;5063855;28;20300;-43
2023/05/13 02:13:24;;;;;;;6.20;5.70;;;10.60;99.90;;;;;;5073141;28;20233;-42
2023/05/13 02:15:52;;;;;;;9.50;6.17;;;10.70;99.90;;;;;;5081633;28;20204;-46
2023/05/13 02:18:19;;;;;;;9.30;6.63;;;10.60;99.90;;;;;;5063167;28;20580;-43
2023/05/13 02:20:46;;;;;;;9.47;7.27;;;10.60;99.90;;;;;;5075287;28;20241;-40
2023/05/13 02:23:13;;;;;;;8.33;7.40;;;10.60;99.90;;;;;;5082615;28;20194;-42
2023/05/13 02:25:41;;;;;;;10.17;6.67;;;10.60;99.90;;;;;;5066454;28;20902;-45
2023/05/13 02:28:08;;;;;;;7.40;6.60;;;10.60;99.90;;;;;;5078899;28;20194;-42
2023/05/13 02:30:36;;;;;;;7.63;6.93;;;10.50;99.90;;;;;;5078813;28;20220;-43
2023/05/13 02:33:04;;;;;;;8.60;6.63;;;10.50;99.90;;;;;;5062590;28;20295;-43
2023/05/13 02:35:31;;;;;;;10.33;7.70;;;10.50;99.90;;;;;;5080429;28;20693;-44
2023/05/13 02:37:59;;;;;;;10.83;7.57;;;10.50;99.90;;;;;;5072819;28;20255;-42
2023/05/13 02:40:27;;;;;;;10.03;7.33;;;10.40;99.90;;;;;;5072023;28;20906;-41
2023/05/13 02:42:54;;;;;;;9.03;7.17;;;10.40;99.90;;;;;;5070258;28;20205;-40
2023/05/13 02:45:33;;;;;;;10.37;7.10;;;10.40;99.90;;;;;;5067647;28;20302;-40
2023/05/13 02:48:02;;;;;;;8.60;7.77;;;10.40;99.90;;;;;;5061750;28;20210;-40
2023/05/13 02:50:29;;;;;;;7.70;7.00;;;10.40;99.90;;;;;;5072779;28;20727;-44
2023/05/13 02:52:57;;;;;;;8.80;7.97;;;10.30;99.90;;;;;;5066808;28;20206;-42
2023/05/13 02:55:25;;;;;;;10.77;8.07;;;10.30;99.90;;;;;;5065765;28;20188;-40
2023/05/13 02:57:52;;;;;;;9.63;7.47;;;10.30;99.90;;;;;;5073253;28;20811;-39
2023/05/13 03:00:21;;;;;;;9.73;8.50;;;10.30;99.90;;;;;;5078308;28;20210;-42
2023/05/13 03:02:48;;;;;;;10.87;8.87;;;10.30;99.90;;;;;;5080568;28;20202;-42
2023/05/13 03:05:16;;;;;;;9.37;8.37;;;10.30;99.90;;;;;;5061477;28;20279;-40
2023/05/13 03:07:43;;;;;;;10.33;7.63;;;10.30;99.90;;;;;;5071218;28;20281;-41
2023/05/13 03:10:10;;;;;;;8.43;7.33;;;10.20;99.90;;;;;;5060454;28;20226;-42
2023/05/13 03:12:38;;;;;;;9.83;8.47;;;10.20;99.90;;;;;;5071394;28;20206;-43
2023/05/13 03:15:06;;;;;;;9.23;8.30;;;10.10;99.90;;;;;;5081493;28;20186;-41
2023/05/13 03:17:34;;;;;;;12.07;9.90;;;10.20;99.90;;;;;;5078463;28;20190;-43
2023/05/13 03:20:01;;;;;;;10.87;7.67;;;10.10;99.90;;;;;;5054083;28;20307;-43
2023/05/13 03:22:29;;;;;;;9.27;7.67;;;10.10;99.90;;;;;;5071526;28;20569;-44
2023/05/13 03:24:57;;;;;;;8.97;8.07;;;10.10;99.90;;;;;;5069275;28;20214;-42
2023/05/13 03:27:30;;;;;;;10.97;8.43;;;10.10;99.90;;;;;;5072585;28;20247;-42
2023/05/13 03:29:57;;;;;;;15.07;9.13;;;10.10;99.90;;;;;;5077474;28;20230;-40
2023/05/13 03:32:29;;;;;;;11.00;8.93;;;10.00;99.90;;;;;;5079777;28;20202;-43
2023/05/13 03:34:59;;;;;;;9.33;8.20;;;10.00;99.90;;;;;;5052818;28;20300;-41
2023/05/13 03:37:26;;;;;;;10.53;9.50;;;10.00;99.90;;;;;;5072992;28;20342;-43
2023/05/13 03:39:55;;;;;;;12.53;8.93;;;10.00;99.90;;;;;;5074010;28;20222;-40
2023/05/13 03:42:22;;;;;;;12.87;9.13;;;10.00;99.90;;;;;;5072024;28;20926;-40
2023/05/13 03:44:50;;;;;;;12.53;9.40;;;10.00;99.90;;;;;;5071833;28;20205;-41
2023/05/13 03:47:17;;;;;;;13.27;10.57;;;10.00;99.90;;;;;;5075268;28;20224;-42
2023/05/13 03:49:46;;;;;;;12.20;10.77;;;9.90;99.90;;;;;;5072754;28;20218;-43
2023/05/13 03:52:35;;;;;;;14.60;11.00;;;9.90;99.90;;;;;;5071069;28;20227;-40
2023/05/13 03:55:04;;;;;;;13.70;9.40;;;9.90;99.90;;;;;;5070127;28;20244;-41
2023/05/13 03:57:33;;;;;;;11.57;10.40;;;9.90;99.90;;;;;;5072429;28;20198;-42
2023/05/13 04:00:00;;;;;;;12.37;10.50;;;9.90;99.90;;;;;;5064426;28;20772;-41
2023/05/13 04:02:29;;;;;;;14.20;11.30;;;9.90;99.90;;;;;;5072018;28;21000;-44
2023/05/13 04:04:56;;;;;;;12.70;10.23;;;9.90;99.90;;;;;;5076462;28;20190;-40
2023/05/13 04:07:23;;;;;;;16.07;11.30;;;9.90;99.90;;;;;;5058569;28;20227;-42
2023/05/13 04:09:52;;;;;;;13.00;10.17;;;10.00;99.90;;;;;;5069312;28;20268;-40
2023/05/13 04:12:20;;;;;;;16.23;10.23;;;10.00;99.90;;;;;;5069612;28;20867;-43
2023/05/13 04:14:47;;;;;;;15.77;11.63;;;10.00;99.90;;;;;;5070015;28;20217;-44
2023/05/13 04:17:14;;;;;;;13.43;10.87;;;10.00;99.90;;;;;;5067190;28;20201;-42
2023/05/13 04:19:41;;;;;;;13.90;11.33;;;10.00;99.90;;;;;;5074775;28;20291;-42
2023/05/13 04:22:08;;;;;;;14.97;11.57;;;10.00;99.90;;;;;;5055242;28;20233;-43
2023/05/13 04:24:35;;;;;;;14.73;11.43;;;10.00;99.90;;;;;;5079143;28;20315;-40
2023/05/13 04:27:25;;;;;;;13.53;11.47;;;10.00;99.90;;;;;;5063603;28;20241;-42
2023/05/13 04:29:58;;;;;;;14.40;11.80;;;10.00;99.90;;;;;;5066785;28;20963;-42
2023/05/13 04:32:27;;;;;;;15.67;12.20;;;10.00;99.90;;;;;;5070822;28;20213;-40
2023/05/13 04:34:55;;;;;;;16.40;12.17;;;10.00;99.90;;;;;;5080974;28;20227;-42
2023/05/13 04:37:23;;;;;;;15.50;12.60;;;10.00;99.90;;;;;;5056742;28;20213;-40
2023/05/13 04:39:53;;;;;;;13.60;11.07;;;10.00;99.90;;;;;;5080072;28;20269;-41
2023/05/13 04:42:23;;;;;;;14.87;12.07;;;10.00;99.90;;;;;;5068859;28;20291;-42
2023/05/13 04:44:51;;;;;;;14.53;12.33;;;10.10;99.90;;;;;;5058017;28;20198;-44
2023/05/13 04:47:18;;;;;;;16.73;13.40;;;10.10;99.90;;;;;;5074423;28;20222;-40
2023/05/13 04:49:45;;;;;;;15.37;12.17;;;10.10;99.90;;;;;;5079934;28;20216;-40
2023/05/13 04:52:12;;;;;;;15.77;11.97;;;10.10;99.90;;;;;;5063519;28;20210;-44
2023/05/13 04:54:39;;;;;;;17.20;12.13;;;10.10;99.90;;;;;;5074984;28;20243;-41
2023/05/13 04:57:07;;;;;;;15.43;12.60;;;10.20;99.90;;;;;;5068324;28;20688;-43
2023/05/13 04:59:34;;;;;;;12.43;11.23;;;10.20;99.90;;;;;;5064782;28;20936;-42
2023/05/13 05:02:02;;;;;;;16.60;12.40;;;10.30;99.90;;;;;;5074741;28;20205;-45
2023/05/13 05:04:30;;;;;;;13.77;12.03;;;10.30;99.90;;;;;;5081632;28;20337;-40
2023/05/13 05:06:57;;;;;;;13.57;12.17;;;10.30;99.90;;;;;;5085304;28;20696;-41
2023/05/13 05:09:25;;;;;;;12.83;11.63;;;10.40;99.90;;;;;;5060071;28;21139;-42
2023/05/13 05:11:53;;;;;;;14.27;11.87;;;10.40;99.90;;;;;;5070132;28;20575;-41
2023/05/13 05:14:22;;;;;;;14.70;12.67;;;10.50;99.90;;;;;;5062402;28;20421;-43
2023/05/13 05:16:52;;;;;;;14.00;12.13;;;10.50;99.90;;;;;;5079330;28;20209;-41
2023/05/13 05:19:22;;;;;;;12.67;11.33;;;10.60;99.90;;;;;;5079078;28;20940;-43
2023/05/13 05:22:11;;;;;;;13.13;11.20;;;10.60;99.90;;;;;;5066358;28;20213;-42
2023/05/13 05:24:38;;;;;;;13.07;10.43;;;10.70;99.90;;;;;;5075356;28;20206;-41
2023/05/13 05:27:05;;;;;;;14.00;11.33;;;10.70;99.90;;;;;;5072080;28;20218;-44
2023/05/13 05:29:36;;;;;;;13.30;11.43;;;10.80;99.90;;;;;;5071549;28;20225;-41
2023/05/13 05:32:02;;;;;;;14.63;11.40;;;10.90;99.90;;;;;;5076923;28;20226;-41
2023/05/13 05:34:32;;;;;;;13.67;10.80;;;10.90;99.90;;;;;;5082439;28;20201;-41
2023/05/13 05:36:58;;;;;;;11.77;10.50;;;11.00;99.90;;;;;;5083403;28;20601;-41
2023/05/13 05:39:26;;;;;;;11.97;10.70;;;11.10;99.90;;;;;;5054127;28;20217;-44
2023/05/13 05:41:53;;;;;;;12.13;10.77;;;11.10;99.90;;;;;;5077013;28;20217;-42
2023/05/13 05:44:20;;;;;;;15.13;11.20;;;11.20;99.90;;;;;;5072685;28;20251;-40
2023/05/13 05:46:48;;;;;;;12.27;10.13;;;11.30;99.90;;;;;;5076992;28;20276;-42
2023/05/13 05:49:15;;;;;;;12.27;10.97;;;11.40;99.90;;;;;;5071700;28;20590;-42
2023/05/13 05:51:45;;;;;;;11.00;9.90;;;11.40;99.90;;;;;;5071846;28;20694;-43
2023/05/13 05:54:13;;;;;;;12.60;10.20;;;11.50;99.90;;;;;;5044038;28;20213;-43
2023/05/13 05:56:40;;;;;;;15.70;9.93;;;11.60;99.90;;;;;;5060159;28;20202;-41
2023/05/13 05:59:06;;;;;;;10.60;9.60;;;11.70;99.90;;;;;;5069784;28;20226;-43
2023/05/13 06:01:35;;;;;;;11.43;9.77;;;11.80;99.90;;;;;;5070780;28;20287;-40
2023/05/13 06:04:02;;;;;;;15.23;10.17;;;11.90;99.90;;;;;;5056605;28;20190;-43
2023/05/13 06:06:31;;;;;;;11.13;9.53;;;11.90;99.90;;;;;;5071508;28;20263;-41
2023/05/13 06:09:20;;;;;;;10.47;8.80;;;12.10;99.90;;;;;;5036268;28;20229;-45
2023/05/13 06:11:49;;;;;;;11.67;8.73;;;12.20;99.90;;;;;;5070747;28;20652;-42
2023/05/13 06:14:17;;;;;;;10.20;8.30;;;12.30;99.90;;;;;;5066216;28;20516;-39
2023/05/13 06:16:43;;;;;;;10.57;8.60;;;12.40;99.90;;;;;;5070722;28;20190;-40
2023/05/13 06:19:10;;;;;;;10.43;9.20;;;12.50;99.90;;;;;;5062071;28;21592;-42
2023/05/13 06:21:37;;;;;;;9.43;8.03;;;12.60;99.90;;;;;;5068901;28;20637;-42
2023/05/13 06:24:05;;;;;;;10.60;8.40;;;12.70;99.90;;;;;;5064218;28;20243;-42
2023/05/13 06:26:33;;;;;;;8.97;8.07;;;12.80;99.90;;;;;;5054906;28;20712;-45
2023/05/13 06:29:00;;;;;;;10.27;7.73;;;12.90;99.90;;;;;;5068647;28;20206;-42
2023/05/13 06:31:27;;;;;;;7.57;6.77;;;13.00;99.90;;;;;;5066625;28;20251;-42
2023/05/13 06:33:54;;;;;;;8.30;7.00;;;13.20;99.90;;;;;;5060900;28;20201;-41
2023/05/13 06:36:24;;;;;;;8.47;7.10;;;13.30;99.90;;;;;;5056142;28;20202;-42
2023/05/13 06:38:51;;;;;;;7.97;7.07;;;13.40;99.90;;;;;;5065977;28;20473;-41
2023/05/13 06:41:17;;;;;;;7.80;7.20;;;13.50;99.90;;;;;;5057081;28;20214;-41
2023/05/13 06:43:47;;;;;;;10.57;7.00;;;13.60;99.90;;;;;;5066256;28;20199;-45
2023/05/13 06:46:21;;;;;;;9.40;6.70;;;13.70;99.90;;;;;;5070253;28;20240;-44
2023/05/13 06:48:51;;;;;;;9.67;7.13;;;13.70;99.90;;;;;;5055670;28;20249;-41
2023/05/13 06:51:17;;;;;;;8.57;6.90;;;13.80;99.90;;;;;;5066367;28;20206;-41
2023/05/13 06:53:45;;;;;;;7.93;6.90;;;13.90;99.90;;;;;;5073607;28;20190;-42
2023/05/13 06:56:12;;;;;;;7.57;6.40;;;14.00;99.90;;;;;;5075659;28;20225;-40
2023/05/13 06:58:38;;;;;;;8.50;6.23;;;14.10;99.90;;;;;;5052184;28;20769;-42
2023/05/13 07:01:07;;;;;;;8.40;6.00;;;14.10;99.90;;;;;;5071470;28;20301;-41
2023/05/13 07:03:35;;;;;;;8.17;6.73;;;14.20;99.90;;;;;;5063078;28;20634;-42
2023/05/13 07:06:01;;;;;;;10.37;6.43;;;14.30;99.90;;;;;;5054973;28;20355;-42
2023/05/13 07:08:28;;;;;;;9.43;6.13;;;14.40;99.90;;;;;;5065302;28;20212;-44
2023/05/13 07:10:55;;;;;;;6.67;5.90;;;14.50;99.90;;;;;;5068521;28;20374;-44
2023/05/13 07:13:22;;;;;;;9.77;5.60;;;14.70;99.90;;;;;;5046742;28;20211;-42
2023/05/13 07:15:49;;;;;;;8.30;6.63;;;14.70;99.90;;;;;;5064194;28;20306;-43
2023/05/13 07:18:18;;;;;;;6.30;5.57;;;14.80;99.90;;;;;;5065601;28;20788;-45
2023/05/13 07:20:45;;;;;;;8.80;6.20;;;14.90;99.90;;;;;;5066770;28;20977;-44
2023/05/13 07:23:12;;;;;;;7.27;6.37;;;15.00;99.90;;;;;;5069669;28;20775;-41
2023/05/13 07:25:39;;;;;;;6.67;6.07;;;15.10;99.90;;;;;;5073837;28;20170;-43
2023/05/13 07:28:06;;;;;;;7.00;5.40;;;15.20;99.90;;;;;;5062017;28;20218;-42
2023/05/13 07:30:33;;;;;;;6.67;6.03;;;15.30;99.90;;;;;;5049665;28;20214;-45
2023/05/13 07:33:00;;;;;;;9.53;5.57;;;15.30;99.90;;;;;;5062461;28;20198;-41
2023/05/13 07:35:29;;;;;;;6.67;5.40;;;15.40;99.90;;;;;;5069778;28;20661;-42
2023/05/13 07:37:56;;;;;;;7.40;5.00;;;15.40;99.90;;;;;;5070197;28;20201;-42
2023/05/13 07:40:23;;;;;;;7.13;6.10;;;15.60;99.90;;;;;;5074963;28;20228;-46
2023/05/13 07:42:50;;;;;;;6.70;5.80;;;15.60;99.90;;;;;;5062398;28;20210;-44
2023/05/13 07:45:16;;;;;;;8.00;5.47;;;15.70;99.90;;;;;;5052505;28;20288;-42
2023/05/13 07:47:43;;;;;;;6.30;5.00;;;;;;;;;;5065297;28;20221;-43
2023/05/13 07:50:11;;;;;;;8.40;5.63;;;15.80;99.90;;;;;;5059935;28;20210;-42
2023/05/13 07:52:39;;;;;;;9.33;5.70;;;16.00;99.90;;;;;;5069591;28;20224;-41
2023/05/13 07:55:07;;;;;;;8.37;5.13;;;16.00;99.90;;;;;;5066277;28;20197;-43
2023/05/13 07:57:35;;;;;;;6.20;5.03;;;16.10;99.90;;;;;;5072225;28;20189;-41
2023/05/13 08:00:03;;;;;;;5.23;4.73;;;16.20;99.90;;;;;;5039470;28;20260;-43
2023/05/13 08:02:39;;;;;;;5.50;4.53;;;16.30;99.90;;;;;;5073511;28;20220;-44
2023/05/13 08:05:11;;;;;;;8.83;4.83;;;;;;;;;;5062659;28;20190;-41
2023/05/13 08:07:40;;;;;;;9.43;4.47;;;16.70;99.90;;;;;;5074658;28;20307;-45
2023/05/13 08:10:08;;;;;;;7.80;5.03;;;16.70;99.90;;;;;;5058110;28;20233;-44
2023/05/13 08:12:34;;;;;;;9.63;4.77;;;16.80;99.90;;;;;;5062332;28;20225;-42
2023/05/13 08:15:03;;;;;;;4.67;4.17;;;17.00;99.90;;;;;;5066146;28;20319;-43
2023/05/13 08:17:31;;;;;;;7.30;4.60;;;;;;;;;;5056104;28;20213;-43
2023/05/13 08:19:58;;;;;;;5.17;4.07;;;17.20;99.90;;;;;;5056764;28;20233;-45
2023/05/13 08:22:25;;;;;;;7.00;3.97;;;17.30;99.90;;;;;;5064244;28;20438;-45
2023/05/13 08:24:53;;;;;;;7.13;4.87;;;17.30;99.90;;;;;;5064778;28;20321;-41
2023/05/13 08:27:20;;;;;;;5.07;4.30;;;17.50;99.90;;;;;;5054766;28;20245;-41
2023/05/13 08:29:47;;;;;;;5.90;4.47;;;17.60;99.90;;;;;;5061292;28;20684;-42
2023/05/13 08:32:13;;;;;;;4.90;4.13;;;17.70;99.90;;;;;;5057278;28;20210;-43
2023/05/13 08:34:40;;;;;;;4.57;3.83;;;17.80;99.90;;;;;;5066008;28;20246;-40
2023/05/13 08:37:07;;;;;;;6.10;4.67;;;17.90;99.90;;;;;;5076900;28;20684;-41
2023/05/13 08:39:34;;;;;;;4.03;3.67;;;18.00;99.90;;;;;;5066010;28;20214;-43
2023/05/13 08:42:03;;;;;;;5.33;3.80;;;18.10;99.90;;;;;;5058679;28;20197;-42
2023/05/13 08:44:32;;;;;;;6.70;3.90;;;18.20;99.90;;;;;;5080705;28;20201;-41
2023/05/13 08:47:08;;;;;;;4.87;3.53;;;18.40;99.90;;;;;;5051947;28;20222;-41
2023/05/13 08:49:34;;;;;;;5.10;3.77;;;18.40;99.90;;;;;;5065195;28;20225;-41
2023/05/13 08:52:23;;;;;;;7.63;4.23;;;18.50;99.90;;;;;;5070689;28;20213;-40
2023/05/13 08:54:50;;;;;;;4.27;3.87;;;18.60;99.90;;;;;;5065817;28;20213;-44
2023/05/13 08:57:40;;;;;;;9.43;3.70;;;18.70;99.90;;;;;;5070769;28;21144;-40
2023/05/13 09:00:28;;;;;;;3.57;3.27;;;18.80;99.90;;;;;;5079089;28;20228;-40
2023/05/13 09:02:55;;;;;;;5.50;3.50;;;18.90;99.90;;;;;;5054062;28;20206;-40
2023/05/13 09:05:23;;;;;;;4.33;3.10;;;19.00;99.00;;;;;;5065810;28;20190;-42
2023/05/13 09:07:50;;;;;;;5.90;3.20;;;19.10;99.70;;;;;;5062746;28;20233;-42
2023/05/13 09:10:17;;;;;;;3.60;3.30;;;19.20;98.60;;;;;;5067539;28;20232;-42
2023/05/13 09:12:48;;;;;;;3.50;3.20;;;19.20;98.40;;;;;;5059826;28;20289;-42
2023/05/13 09:15:16;;;;;;;4.13;3.23;;;19.30;97.40;;;;;;5065978;28;20785;-42
2023/05/13 09:17:45;;;;;;;5.30;3.00;;;19.40;97.50;;;;;;5067322;28;20222;-42
2023/05/13 09:20:13;;;;;;;7.90;3.37;;;19.60;97.30;;;;;;5050190;28;20222;-41
2023/05/13 09:22:42;;;;;;;3.70;3.40;;;19.90;99.90;;;;;;5061394;28;20739;-41
2023/05/13 09:25:12;;;;;;;5.23;3.10;;;19.70;97.10;;;;;;5074845;28;20213;-40
2023/05/13 09:27:42;;;;;;;4.40;2.70;;;19.80;99.90;;;;;;5070852;28;20230;-40
2023/05/13 09:30:10;;;;;;;4.67;3.17;;;19.80;96.20;;;;;;5078229;28;20206;-41
2023/05/13 09:32:38;;;;;;;8.07;3.90;;;19.90;94.90;;;;;;5067930;28;20210;-40
2023/05/13 09:35:15;;;;;;;5.43;2.60;;;19.90;95.60;;;;;;5054690;28;20707;-42
2023/05/13 09:37:44;;;;;;;4.53;2.90;;;20.10;93.60;;;;;;5069566;28;20194;-41
2023/05/13 09:40:12;;;;;;;7.00;3.97;;;20.10;93.10;;;;;;5071355;28;20233;-44
2023/05/13 09:42:43;;;;;;;5.07;3.63;;;20.20;92.50;;;;;;5062903;28;20206;-40
2023/05/13 09:45:13;;;;;;;3.77;3.13;;;20.20;92.50;;;;;;5074367;28;20977;-40
2023/05/13 09:47:42;;;;;;;7.20;3.17;;;20.20;91.60;;;;;;5069576;28;20765;-40
